createdAt,value
2023-01-20T00:01:52.308Z,19.01
2023-01-20T00:04:19.369Z,19.01
2023-01-20T00:06:46.100Z,19.02
2023-01-20T00:09:16.428Z,19.02
2023-01-20T00:11:42.872Z,19.00
2023-01-20T00:14:09.697Z,19.01
2023-01-20T00:16:36.243Z,19.00
2023-01-20T00:19:02.647Z,18.98
2023-01-20T00:21:29.031Z,18.99
2023-01-20T00:23:55.867Z,18.98
2023-01-20T00:26:23.751Z,18.98
2023-01-20T00:28:52.782Z,18.98
2023-01-20T00:31:31.627Z,18.97
2023-01-20T00:33:59.451Z,18.95
2023-01-20T00:36:26.876Z,18.96
2023-01-20T00:38:53.648Z,18.95
2023-01-20T00:41:20.274Z,18.94
2023-01-20T00:43:46.805Z,18.95
2023-01-20T00:46:13.872Z,18.94
2023-01-20T00:48:40.623Z,18.96
2023-01-20T00:51:07.835Z,18.97
2023-01-20T00:53:34.357Z,18.96
2023-01-20T00:56:00.948Z,18.97
2023-01-20T00:58:27.445Z,18.98
2023-01-20T01:00:55.227Z,18.97
2023-01-20T01:03:22.054Z,18.97
2023-01-20T01:05:48.526Z,18.98
2023-01-20T01:08:14.971Z,18.97
2023-01-20T01:10:41.521Z,18.97
2023-01-20T01:13:08.522Z,18.96
2023-01-20T01:15:34.990Z,18.96
2023-01-20T01:18:01.883Z,18.96
2023-01-20T01:20:28.418Z,18.97
2023-01-20T01:22:55.327Z,18.98
2023-01-20T01:25:21.754Z,18.96
2023-01-20T01:27:48.276Z,19.00
2023-01-20T01:30:14.732Z,18.99
2023-01-20T01:32:41.154Z,19.02
2023-01-20T01:35:07.702Z,19.02
2023-01-20T01:37:34.205Z,19.02
2023-01-20T01:40:00.617Z,19.02
2023-01-20T01:42:27.026Z,19.03
2023-01-20T01:45:12.015Z,19.03
2023-01-20T01:47:41.075Z,19.04
2023-01-20T01:50:11.295Z,19.04
2023-01-20T01:52:38.743Z,19.04
2023-01-20T01:55:05.382Z,19.06
2023-01-20T01:57:32.289Z,19.08
2023-01-20T01:59:58.738Z,19.07
2023-01-20T02:02:25.206Z,19.10
2023-01-20T02:04:51.616Z,19.10
2023-01-20T02:07:19.193Z,19.12
2023-01-20T02:09:46.759Z,19.14
2023-01-20T02:12:14.590Z,19.14
2023-01-20T02:14:45.203Z,19.14
2023-01-20T02:17:26.918Z,19.15
2023-01-20T02:20:26.066Z,19.14
2023-01-20T02:22:52.418Z,19.14
2023-01-20T02:25:24.552Z,19.15
2023-01-20T02:27:50.963Z,19.14
2023-01-20T02:30:36.367Z,19.14
2023-01-20T02:33:05.564Z,19.13
2023-01-20T02:35:41.237Z,19.13
2023-01-20T02:38:14.281Z,19.12
2023-01-20T02:40:43.395Z,19.11
2023-01-20T02:43:12.126Z,19.12
2023-01-20T02:45:38.543Z,19.11
2023-01-20T02:48:14.802Z,19.11
2023-01-20T02:50:54.972Z,19.10
2023-01-20T02:53:23.212Z,19.10
2023-01-20T02:55:52.047Z,19.11
2023-01-20T02:58:18.509Z,19.10
2023-01-20T03:00:49.432Z,19.11
2023-01-20T03:03:18.469Z,19.11
2023-01-20T03:05:52.589Z,19.11
2023-01-20T03:08:20.104Z,19.11
2023-01-20T03:10:47.840Z,19.11
2023-01-20T03:13:27.402Z,19.10
2023-01-20T03:15:58.579Z,19.10
2023-01-20T03:18:25.590Z,19.09
2023-01-20T03:20:52.059Z,19.10
2023-01-20T03:23:18.475Z,19.10
2023-01-20T03:25:45.993Z,19.12
2023-01-20T03:28:13.196Z,19.12
2023-01-20T03:30:39.649Z,19.13
2023-01-20T03:33:06.239Z,19.13
2023-01-20T03:35:32.678Z,19.13
2023-01-20T03:37:59.125Z,19.14
2023-01-20T03:40:29.045Z,19.15
2023-01-20T03:43:24.634Z,19.14
2023-01-20T03:45:57.364Z,19.16
2023-01-20T03:48:41.967Z,19.18
2023-01-20T03:51:34.706Z,19.18
2023-01-20T03:54:07.094Z,19.19
2023-01-20T03:56:37.813Z,19.19
2023-01-20T03:59:05.130Z,19.19
2023-01-20T04:01:36.837Z,19.17
2023-01-20T04:04:04.111Z,19.17
2023-01-20T04:06:31.647Z,19.17
2023-01-20T04:09:10.581Z,19.16
2023-01-20T04:11:37.060Z,19.16
2023-01-20T04:14:03.494Z,19.19
2023-01-20T04:16:29.841Z,19.17
2023-01-20T04:18:56.536Z,19.16
2023-01-20T04:21:36.908Z,19.18
2023-01-20T04:24:07.233Z,19.16
2023-01-20T04:26:33.611Z,19.16
2023-01-20T04:29:00.054Z,19.17
2023-01-20T04:31:31.046Z,19.16
2023-01-20T04:33:58.008Z,19.17
2023-01-20T04:36:24.400Z,19.17
2023-01-20T04:38:50.728Z,19.19
2023-01-20T04:41:17.125Z,19.20
2023-01-20T04:43:44.964Z,19.21
2023-01-20T04:46:12.149Z,19.23
2023-01-20T04:48:38.792Z,19.23
2023-01-20T04:51:05.593Z,19.22
2023-01-20T04:53:31.932Z,19.22
2023-01-20T04:55:58.804Z,19.23
2023-01-20T04:58:25.240Z,19.23
2023-01-20T05:00:51.888Z,19.21
2023-01-20T05:03:18.556Z,19.21
2023-01-20T05:05:51.830Z,19.21
2023-01-20T05:08:18.171Z,19.20
2023-01-20T05:10:44.534Z,19.17
2023-01-20T05:13:10.889Z,19.17
2023-01-20T05:15:37.239Z,19.16
2023-01-20T05:18:03.673Z,19.16
2023-01-20T05:20:30.026Z,19.15
2023-01-20T05:22:56.375Z,19.15
2023-01-20T05:25:22.801Z,19.14
2023-01-20T05:27:49.281Z,19.15
2023-01-20T05:30:15.726Z,19.14
2023-01-20T05:32:42.179Z,19.14
2023-01-20T05:35:09.069Z,19.15
2023-01-20T05:37:35.556Z,19.16
2023-01-20T05:40:02.117Z,19.16
2023-01-20T05:42:28.526Z,19.16
2023-01-20T05:44:54.953Z,19.16
2023-01-20T05:47:21.302Z,19.16
2023-01-20T05:49:47.685Z,19.15
2023-01-20T05:52:14.078Z,19.15
2023-01-20T05:54:40.445Z,19.19
2023-01-20T05:57:06.847Z,19.26
2023-01-20T05:59:33.242Z,19.32
2023-01-20T06:01:59.641Z,19.34
2023-01-20T06:04:26.096Z,19.38
2023-01-20T06:06:52.545Z,19.41
2023-01-20T06:09:18.886Z,19.45
2023-01-20T06:11:45.265Z,19.47
2023-01-20T06:14:11.734Z,19.50
2023-01-20T06:16:38.068Z,19.52
2023-01-20T06:19:04.488Z,19.54
2023-01-20T06:21:30.908Z,19.56
2023-01-20T06:23:57.371Z,19.58
2023-01-20T06:26:23.804Z,19.63
2023-01-20T06:28:50.171Z,19.64
2023-01-20T06:31:16.761Z,19.64
2023-01-20T06:33:43.645Z,19.65
2023-01-20T06:36:13.572Z,19.67
2023-01-20T06:38:40.365Z,19.69
2023-01-20T06:41:07.922Z,19.69
2023-01-20T06:43:35.099Z,19.72
2023-01-20T06:46:02.590Z,19.74
2023-01-20T06:48:29.654Z,19.75
2023-01-20T06:51:06.476Z,19.77
2023-01-20T06:53:32.870Z,19.79
2023-01-20T06:55:59.948Z,19.79
2023-01-20T06:58:27.488Z,19.80
2023-01-20T07:00:55.081Z,19.81
2023-01-20T07:03:21.654Z,19.83
2023-01-20T07:05:56.577Z,19.84
2023-01-20T07:08:23.054Z,19.84
2023-01-20T07:10:49.435Z,19.85
2023-01-20T07:13:15.792Z,19.87
2023-01-20T07:15:42.181Z,19.86
2023-01-20T07:18:08.616Z,19.87
2023-01-20T07:20:35.132Z,19.87
2023-01-20T07:23:02.453Z,19.88
2023-01-20T07:25:28.821Z,19.90
2023-01-20T07:27:57.684Z,19.90
2023-01-20T07:30:24.387Z,19.91
2023-01-20T07:32:51.487Z,19.93
2023-01-20T07:35:17.880Z,19.93
2023-01-20T07:37:44.317Z,19.94
2023-01-20T07:40:11.085Z,19.95
2023-01-20T07:42:37.607Z,19.95
2023-01-20T07:45:04.553Z,19.96
2023-01-20T07:47:32.058Z,19.95
2023-01-20T07:49:58.483Z,19.97
2023-01-20T07:52:24.921Z,19.97
2023-01-20T07:54:51.357Z,19.98
2023-01-20T07:57:17.775Z,19.99
2023-01-20T07:59:44.150Z,20.01
2023-01-20T08:02:10.654Z,20.02
2023-01-20T08:04:37.177Z,20.03
2023-01-20T08:07:03.895Z,19.90
2023-01-20T08:09:30.399Z,19.66
2023-01-20T08:11:56.822Z,19.34
2023-01-20T08:14:23.459Z,19.05
2023-01-20T08:16:50.001Z,18.84
2023-01-20T08:19:16.440Z,18.65
2023-01-20T08:21:42.834Z,18.46
2023-01-20T08:24:10.240Z,18.28
2023-01-20T08:26:36.898Z,18.15
2023-01-20T08:29:07.535Z,18.09
2023-01-20T08:31:34.672Z,18.15
2023-01-20T08:34:01.276Z,18.24
2023-01-20T08:36:29.380Z,18.32
2023-01-20T08:38:56.845Z,18.40
2023-01-20T08:41:25.678Z,18.47
2023-01-20T08:43:52.147Z,18.54
2023-01-20T08:46:19.349Z,18.61
2023-01-20T08:48:46.661Z,18.67
2023-01-20T08:51:17.499Z,18.72
2023-01-20T08:53:44.259Z,18.78
2023-01-20T08:56:11.358Z,18.83
2023-01-20T08:58:38.376Z,18.87
2023-01-20T09:01:09.077Z,18.88
2023-01-20T09:03:35.589Z,18.96
2023-01-20T09:06:03.086Z,19.00
2023-01-20T09:08:29.642Z,19.03
2023-01-20T09:11:01.635Z,19.07
2023-01-20T09:13:28.160Z,19.11
2023-01-20T09:15:54.700Z,19.13
2023-01-20T09:18:21.218Z,19.16
2023-01-20T09:20:47.645Z,19.18
2023-01-20T09:23:14.173Z,19.19
2023-01-20T09:25:40.761Z,19.22
2023-01-20T09:28:07.247Z,19.25
2023-01-20T09:30:33.629Z,19.25
2023-01-20T09:33:00.198Z,19.26
2023-01-20T09:35:26.696Z,19.30
2023-01-20T09:38:11.852Z,19.31
2023-01-20T09:41:07.197Z,19.33
2023-01-20T09:43:55.648Z,19.34
2023-01-20T09:47:10.397Z,19.35
2023-01-20T09:50:04.476Z,19.36
2023-01-20T09:52:54.443Z,19.37
2023-01-20T09:55:28.798Z,19.39
2023-01-20T09:58:07.455Z,19.39
2023-01-20T10:00:35.378Z,19.41
2023-01-20T10:03:24.570Z,19.42
2023-01-20T10:05:54.581Z,19.43
2023-01-20T10:08:29.322Z,19.45
2023-01-20T10:10:59.273Z,19.45
2023-01-20T10:13:25.628Z,19.48
2023-01-20T10:15:54.232Z,19.50
2023-01-20T10:18:24.123Z,19.50
2023-01-20T10:20:53.872Z,19.51
2023-01-20T10:23:35.637Z,19.51
2023-01-20T10:26:21.672Z,19.52
2023-01-20T10:29:08.879Z,19.56
2023-01-20T10:31:38.682Z,19.58
2023-01-20T10:34:12.630Z,19.59
2023-01-20T10:36:41.647Z,19.62
2023-01-20T10:39:16.812Z,19.65
2023-01-20T10:41:49.146Z,19.70
2023-01-20T10:44:16.068Z,19.72
2023-01-20T10:46:48.709Z,19.75
2023-01-20T10:49:17.963Z,19.78
2023-01-20T10:51:47.635Z,19.82
2023-01-20T10:54:14.379Z,19.85
2023-01-20T10:56:45.574Z,19.87
2023-01-20T10:59:13.848Z,19.89
2023-01-20T11:01:40.898Z,19.91
2023-01-20T11:04:10.893Z,19.93
2023-01-20T11:06:38.710Z,19.97
2023-01-20T11:09:18.722Z,19.97
2023-01-20T11:11:45.529Z,19.99
2023-01-20T11:14:12.853Z,20.00
2023-01-20T11:16:42.130Z,20.01
2023-01-20T11:19:08.579Z,20.01
2023-01-20T11:21:36.985Z,20.01
2023-01-20T11:24:22.267Z,19.99
2023-01-20T11:26:48.799Z,19.98
2023-01-20T11:29:15.301Z,19.97
2023-01-20T11:31:49.951Z,19.96
2023-01-20T11:34:22.665Z,19.96
2023-01-20T11:37:09.033Z,19.95
2023-01-20T11:39:56.833Z,19.94
2023-01-20T11:42:27.973Z,19.93
2023-01-20T11:45:01.132Z,19.92
2023-01-20T11:47:33.754Z,19.90
2023-01-20T11:50:09.533Z,19.92
2023-01-20T11:52:38.090Z,19.90
2023-01-20T11:55:07.252Z,19.89
2023-01-20T11:57:34.319Z,19.88
2023-01-20T12:00:00.697Z,19.88
2023-01-20T12:02:28.237Z,19.87
2023-01-20T12:05:00.759Z,19.85
2023-01-20T12:07:42.626Z,19.84
2023-01-20T12:10:14.976Z,19.86
2023-01-20T12:12:45.653Z,19.83
2023-01-20T12:15:16.759Z,19.84
2023-01-20T12:17:43.235Z,19.83
2023-01-20T12:20:28.166Z,19.83
2023-01-20T12:23:14.156Z,19.82
2023-01-20T12:25:43.365Z,19.81
2023-01-20T12:28:16.466Z,19.79
2023-01-20T12:30:58.017Z,19.79
2023-01-20T12:33:47.518Z,19.79
2023-01-20T12:36:24.949Z,19.79
2023-01-20T12:39:10.439Z,19.76
2023-01-20T12:42:05.367Z,19.76
2023-01-20T12:44:50.759Z,19.74
2023-01-20T12:47:30.820Z,19.75
2023-01-20T12:50:09.364Z,19.73
2023-01-20T12:52:38.611Z,19.73
2023-01-20T12:55:23.735Z,19.73
2023-01-20T12:57:56.774Z,19.73
2023-01-20T13:00:37.436Z,19.71
2023-01-20T13:03:03.968Z,19.72
2023-01-20T13:05:48.151Z,19.70
2023-01-20T13:08:14.684Z,19.71
2023-01-20T13:10:51.417Z,19.70
2023-01-20T13:13:56.046Z,19.69
2023-01-20T13:16:26.465Z,19.69
2023-01-20T13:19:05.462Z,19.69
2023-01-20T13:21:32.992Z,19.69
2023-01-20T13:24:03.614Z,19.69
2023-01-20T13:26:31.170Z,19.70
2023-01-20T13:28:59.198Z,19.70
2023-01-20T13:31:41.801Z,19.69
2023-01-20T13:34:37.767Z,19.69
2023-01-20T13:37:04.715Z,19.69
2023-01-20T13:39:46.902Z,19.68
2023-01-20T13:42:32.188Z,19.70
2023-01-20T13:45:14.524Z,19.69
2023-01-20T13:47:59.802Z,19.67
2023-01-20T13:50:29.684Z,19.68
2023-01-20T13:53:04.092Z,19.69
2023-01-20T13:55:50.843Z,19.68
2023-01-20T13:58:25.110Z,19.67
2023-01-20T14:00:53.213Z,19.68
2023-01-20T14:03:19.660Z,19.67
2023-01-20T14:05:50.939Z,19.67
2023-01-20T14:08:17.787Z,19.68
2023-01-20T14:10:44.241Z,19.68
2023-01-20T14:13:11.738Z,19.68
2023-01-20T14:15:40.101Z,19.68
2023-01-20T14:18:13.347Z,19.68
2023-01-20T14:20:41.085Z,19.67
2023-01-20T14:23:27.472Z,19.67
2023-01-20T14:25:58.112Z,19.68
2023-01-20T14:28:24.686Z,19.68
2023-01-20T14:31:04.859Z,19.66
2023-01-20T14:33:33.596Z,19.68
2023-01-20T14:36:05.551Z,19.68
2023-01-20T14:38:31.943Z,19.68
2023-01-20T14:40:58.299Z,19.67
2023-01-20T14:43:24.744Z,19.67
2023-01-20T14:45:52.081Z,19.67
2023-01-20T14:48:33.459Z,19.68
2023-01-20T14:51:04.037Z,19.67
2023-01-20T14:53:33.127Z,19.67
2023-01-20T14:56:00.775Z,19.66
2023-01-20T14:58:30.035Z,19.67
2023-01-20T15:01:00.285Z,19.67
2023-01-20T15:03:30.851Z,19.67
2023-01-20T15:05:58.361Z,19.68
2023-01-20T15:08:26.695Z,19.66
2023-01-20T15:11:18.900Z,19.65
2023-01-20T15:13:51.485Z,19.65
2023-01-20T15:16:28.349Z,19.65
2023-01-20T15:19:13.414Z,19.63
2023-01-20T15:21:40.615Z,19.63
2023-01-20T15:24:12.464Z,19.63
2023-01-20T15:26:39.098Z,19.63
2023-01-20T15:29:20.787Z,19.62
2023-01-20T15:31:47.365Z,19.63
2023-01-20T15:34:13.850Z,19.64
2023-01-20T15:36:40.770Z,19.62
2023-01-20T15:39:11.203Z,19.62
2023-01-20T15:41:37.691Z,19.62
2023-01-20T15:44:04.410Z,19.62
2023-01-20T15:46:31.045Z,19.61
2023-01-20T15:48:57.482Z,19.61
2023-01-20T15:51:25.926Z,19.61
2023-01-20T15:53:52.489Z,19.62
2023-01-20T15:56:20.226Z,19.60
2023-01-20T15:58:47.198Z,19.60
2023-01-20T16:01:14.661Z,19.61
2023-01-20T16:03:41.277Z,19.61
2023-01-20T16:06:12.594Z,19.61
2023-01-20T16:08:39.329Z,19.60
2023-01-20T16:11:05.892Z,19.61
2023-01-20T16:13:32.266Z,19.61
2023-01-20T16:15:58.826Z,19.60
2023-01-20T16:18:25.231Z,19.61
2023-01-20T16:20:51.833Z,19.61
2023-01-20T16:23:18.468Z,19.61
2023-01-20T16:25:45.160Z,19.60
2023-01-20T16:28:19.732Z,19.61
2023-01-20T16:30:46.108Z,19.61
2023-01-20T16:33:20.384Z,19.61
2023-01-20T16:35:47.226Z,19.61
2023-01-20T16:38:15.505Z,19.62
2023-01-20T16:40:45.237Z,19.62
2023-01-20T16:43:12.679Z,19.61
2023-01-20T16:45:39.117Z,19.61
2023-01-20T16:48:05.623Z,19.60
2023-01-20T16:50:32.051Z,19.63
2023-01-20T16:52:58.444Z,19.62
2023-01-20T16:55:25.035Z,19.62
2023-01-20T16:57:51.384Z,19.61
2023-01-20T17:00:19.181Z,19.61
2023-01-20T17:02:49.043Z,19.60
2023-01-20T17:05:15.547Z,19.60
2023-01-20T17:07:41.913Z,19.60
2023-01-20T17:10:08.596Z,19.60
2023-01-20T17:12:35.085Z,19.60
2023-01-20T17:15:01.474Z,19.59
2023-01-20T17:17:27.851Z,19.59
2023-01-20T17:19:54.252Z,19.59
2023-01-20T17:22:20.721Z,19.58
2023-01-20T17:24:47.154Z,19.57
2023-01-20T17:27:13.562Z,19.57
2023-01-20T17:29:39.988Z,19.57
2023-01-20T17:32:06.366Z,19.57
2023-01-20T17:34:32.843Z,19.56
2023-01-20T17:36:59.418Z,19.57
2023-01-20T17:39:25.908Z,19.55
2023-01-20T17:41:52.284Z,19.55
2023-01-20T17:44:18.655Z,19.54
2023-01-20T17:46:47.617Z,19.55
2023-01-20T17:49:14.048Z,19.53
2023-01-20T17:51:40.775Z,19.53
2023-01-20T17:54:08.110Z,19.53
2023-01-20T17:56:34.537Z,19.52
2023-01-20T17:59:00.920Z,19.52
2023-01-20T18:01:28.518Z,19.53
2023-01-20T18:03:56.070Z,19.53
2023-01-20T18:06:23.157Z,19.53
2023-01-20T18:08:57.010Z,19.52
2023-01-20T18:11:24.722Z,19.52
2023-01-20T18:13:51.962Z,19.52
2023-01-20T18:16:19.420Z,19.52
2023-01-20T18:18:46.593Z,19.52
2023-01-20T18:21:14.461Z,19.51
2023-01-20T18:23:41.887Z,19.52
2023-01-20T18:26:08.933Z,19.51
2023-01-20T18:28:35.837Z,19.51
2023-01-20T18:31:08.061Z,19.50
2023-01-20T18:33:38.319Z,19.51
2023-01-20T18:36:05.346Z,19.51
2023-01-20T18:38:32.063Z,19.51
2023-01-20T18:40:59.092Z,19.50
2023-01-20T18:43:25.549Z,19.50
2023-01-20T18:45:55.497Z,19.51
2023-01-20T18:48:25.438Z,19.49
2023-01-20T18:50:52.955Z,19.48
2023-01-20T18:53:19.476Z,19.49
2023-01-20T18:55:45.919Z,19.48
2023-01-20T18:58:16.277Z,19.48
2023-01-20T19:00:43.551Z,19.48
2023-01-20T19:03:10.345Z,19.48
2023-01-20T19:05:36.850Z,19.48
2023-01-20T19:08:03.383Z,19.48
2023-01-20T19:10:29.766Z,19.48
2023-01-20T19:12:56.251Z,19.49
2023-01-20T19:15:22.671Z,19.48
2023-01-20T19:17:50.629Z,19.49
2023-01-20T19:20:17.344Z,19.48
2023-01-20T19:22:43.960Z,19.49
2023-01-20T19:25:10.480Z,19.49
2023-01-20T19:27:36.960Z,19.49
2023-01-20T19:30:13.218Z,19.48
2023-01-20T19:32:43.420Z,19.49
2023-01-20T19:35:10.244Z,19.50
2023-01-20T19:37:38.494Z,19.51
2023-01-20T19:40:05.709Z,19.50
2023-01-20T19:42:32.941Z,19.46
2023-01-20T19:44:59.430Z,19.50
2023-01-20T19:47:26.070Z,19.50
2023-01-20T19:49:52.519Z,19.50
2023-01-20T19:52:18.939Z,19.51
2023-01-20T19:54:45.389Z,19.51
2023-01-20T19:57:12.034Z,19.51
2023-01-20T19:59:40.831Z,19.51
2023-01-20T20:02:10.692Z,19.51
2023-01-20T20:04:37.158Z,19.50
2023-01-20T20:07:03.658Z,19.51
2023-01-20T20:09:30.390Z,19.51
2023-01-20T20:11:57.784Z,19.51
2023-01-20T20:14:24.379Z,19.50
2023-01-20T20:16:50.917Z,19.51
2023-01-20T20:19:18.745Z,19.49
2023-01-20T20:21:45.220Z,19.51
2023-01-20T20:24:12.548Z,19.51
2023-01-20T20:26:39.343Z,19.51
2023-01-20T20:29:06.440Z,19.52
2023-01-20T20:31:34.286Z,19.52
2023-01-20T20:34:01.611Z,19.52
2023-01-20T20:36:29.604Z,19.54
2023-01-20T20:38:57.787Z,19.54
2023-01-20T20:41:27.258Z,19.55
2023-01-20T20:43:53.829Z,19.55
2023-01-20T20:46:20.581Z,19.57
2023-01-20T20:48:47.131Z,19.56
2023-01-20T20:51:15.040Z,19.57
2023-01-20T20:53:41.964Z,19.58
2023-01-20T20:56:09.484Z,19.57
2023-01-20T20:58:36.628Z,19.57
2023-01-20T21:01:08.882Z,19.58
2023-01-20T21:03:35.438Z,19.56
2023-01-20T21:06:04.930Z,19.58
2023-01-20T21:08:31.445Z,19.57
2023-01-20T21:11:01.659Z,19.57
2023-01-20T21:13:28.585Z,19.58
2023-01-20T21:16:03.640Z,19.58
2023-01-20T21:18:30.588Z,19.58
2023-01-20T21:20:58.240Z,19.58
2023-01-20T21:23:25.076Z,19.58
2023-01-20T21:25:51.934Z,19.58
2023-01-20T21:28:18.711Z,19.59
2023-01-20T21:30:45.456Z,19.58
2023-01-20T21:33:17.612Z,19.59
2023-01-20T21:35:45.106Z,19.58
2023-01-20T21:38:11.822Z,19.58
2023-01-20T21:40:38.339Z,19.58
2023-01-20T21:43:23.487Z,19.58
2023-01-20T21:45:53.350Z,19.58
2023-01-20T21:48:38.559Z,19.58
2023-01-20T21:51:25.331Z,19.57
2023-01-20T21:53:52.117Z,19.57
2023-01-20T21:56:18.546Z,19.57
2023-01-20T21:58:45.078Z,19.57
2023-01-20T22:01:11.540Z,19.56
2023-01-20T22:03:37.936Z,19.55
2023-01-20T22:06:05.278Z,19.55
2023-01-20T22:08:31.835Z,19.56
2023-01-20T22:10:59.571Z,19.55
2023-01-20T22:13:26.617Z,19.55
2023-01-20T22:15:53.152Z,19.54
2023-01-20T22:18:19.903Z,19.54
2023-01-20T22:20:46.769Z,19.53
2023-01-20T22:23:14.168Z,19.55
2023-01-20T22:25:40.566Z,19.54
2023-01-20T22:28:07.111Z,19.53
2023-01-20T22:30:33.621Z,19.52
2023-01-20T22:33:00.048Z,19.51
2023-01-20T22:35:26.421Z,19.53
2023-01-20T22:37:52.813Z,19.54
2023-01-20T22:40:19.285Z,19.53
2023-01-20T22:42:45.762Z,19.52
2023-01-20T22:45:12.261Z,19.52
2023-01-20T22:47:38.735Z,19.53
2023-01-20T22:50:05.535Z,19.54
2023-01-20T22:52:32.076Z,19.53
2023-01-20T22:54:58.505Z,19.54
2023-01-20T22:57:24.901Z,19.52
2023-01-20T22:59:51.364Z,19.52
2023-01-20T23:02:17.857Z,19.52
2023-01-20T23:04:44.318Z,19.53
2023-01-20T23:07:10.845Z,19.56
2023-01-20T23:09:37.335Z,19.54
2023-01-20T23:12:03.901Z,19.49
2023-01-20T23:15:08.805Z,19.45
2023-01-20T23:17:35.620Z,19.39
2023-01-20T23:20:02.208Z,19.34
2023-01-20T23:22:30.000Z,19.31
2023-01-20T23:24:56.357Z,19.25
2023-01-20T23:27:22.745Z,19.18
2023-01-20T23:29:49.165Z,19.12
2023-01-20T23:32:15.555Z,19.07
2023-01-20T23:34:41.991Z,19.05
2023-01-20T23:37:08.404Z,19.01
2023-01-20T23:39:34.800Z,18.98
2023-01-20T23:42:01.281Z,18.92
2023-01-20T23:44:27.655Z,18.87
2023-01-20T23:46:54.002Z,18.86
2023-01-20T23:49:22.545Z,18.82
2023-01-20T23:51:49.132Z,18.79
2023-01-20T23:54:15.560Z,18.78
2023-01-20T23:56:42.100Z,18.77
2023-01-20T23:59:08.539Z,18.76
